Time;durP1;ratioP1;P1;durP2;ratioP2;P2;SDS_P1;SDS_P2;PMS_P1;PMS_P2;Temp;Humidity;BMP_temperature;BMP_pressure;BME280_temperature;BME280_humidity;BME280_pressure;Samples;Min_cycle;Max_cycle;Signal;HPM_P1;HPM_P2
2021/07/24 00:01:13;;;;;;;20.77;14.40;;;;;;;;;;3585856;40;20049;-58
2021/07/24 00:03:39;;;;;;;20.75;14.30;;;;;;;;;;3586676;40;20291;-58
2021/07/24 00:06:05;;;;;;;16.67;14.00;;;;;;;;;;3586617;40;20369;-56
2021/07/24 00:08:30;;;;;;;17.00;15.30;;;;;;;;;;3586033;40;20052;-57
2021/07/24 00:10:56;;;;;;;19.90;14.57;;;;;;;;;;3586406;40;20067;-57
2021/07/24 00:13:21;;;;;;;19.20;15.35;;;;;;;;;;3584774;40;20041;-57
2021/07/24 00:15:47;;;;;;;15.65;14.05;;;;;;;;;;3585886;40;20121;-57
2021/07/24 00:18:12;;;;;;;18.92;15.57;;;;;;;;;;3586645;40;20044;-57
2021/07/24 00:20:38;;;;;;;26.40;16.05;;;;;;;;;;3585921;40;20065;-57
2021/07/24 00:23:06;;;;;;;26.58;14.90;;;;;;;;;;3586550;40;20084;-55
2021/07/24 00:25:35;;;;;;;17.65;14.20;;;;;;;;;;3586554;40;20042;-57
2021/07/24 00:28:00;;;;;;;16.08;14.18;;;;;;;;;;3586256;40;20035;-57
2021/07/24 00:30:25;;;;;;;19.27;13.80;;;;;;;;;;3586658;40;20080;-57
2021/07/24 00:32:51;;;;;;;16.50;14.60;;;;;;;;;;3586550;40;20075;-58
2021/07/24 00:35:16;;;;;;;15.10;13.32;;;;;;;;;;3586231;40;20756;-57
2021/07/24 00:37:42;;;;;;;20.98;13.57;;;;;;;;;;3585672;40;20036;-56
2021/07/24 00:40:13;;;;;;;16.52;13.80;;;;;;;;;;3585056;40;20368;-57
2021/07/24 00:42:39;;;;;;;15.25;13.35;;;;;;;;;;3585960;40;20103;-58
2021/07/24 00:45:06;;;;;;;15.10;13.43;;;;;;;;;;3586082;40;20032;-57
2021/07/24 00:47:39;;;;;;;17.00;13.38;;;;;;;;;;3585916;40;20037;-57
2021/07/24 00:50:06;;;;;;;14.93;13.20;;;;;;;;;;3585509;40;20075;-56
2021/07/24 00:52:32;;;;;;;16.70;12.27;;;;;;;;;;3583990;40;20044;-57
2021/07/24 00:54:58;;;;;;;16.10;12.43;;;;;;;;;;3586243;40;20040;-58
2021/07/24 00:57:23;;;;;;;15.73;13.10;;;;;;;;;;3586345;40;20058;-57
2021/07/24 00:59:48;;;;;;;18.13;13.05;;;;;;;;;;3585328;40;20779;-57
2021/07/24 01:02:14;;;;;;;20.92;13.98;;;;;;;;;;3587946;40;20052;-58
2021/07/24 01:04:40;;;;;;;15.90;13.45;;;;;;;;;;3585670;40;20024;-56
2021/07/24 01:07:06;;;;;;;15.43;13.55;;;;;;;;;;3586748;40;20044;-57
2021/07/24 01:09:32;;;;;;;20.00;14.57;;;;;;;;;;3586082;40;20353;-58
2021/07/24 01:12:00;;;;;;;16.85;15.15;;;;;;;;;;3586053;40;20125;-58
2021/07/24 01:14:28;;;;;;;18.95;15.30;;;;;;;;;;3586256;40;20391;-57
2021/07/24 01:16:53;;;;;;;16.23;14.63;;;;;;;;;;3584936;40;20029;-56
2021/07/24 01:19:18;;;;;;;18.20;14.65;;;;;;;;;;3584371;40;20029;-56
2021/07/24 01:21:44;;;;;;;23.15;14.43;;;;;;;;;;3585691;40;20111;-55
2021/07/24 01:24:09;;;;;;;16.30;13.80;;;;;;;;;;3585773;40;20378;-58
2021/07/24 01:26:35;;;;;;;18.35;14.13;;;;;;;;;;3586489;40;20041;-58
2021/07/24 01:29:01;;;;;;;15.98;14.38;;;;;;;;;;3585692;40;20276;-58
2021/07/24 01:31:27;;;;;;;16.50;14.48;;;;;;;;;;3585927;40;20036;-58
2021/07/24 01:33:52;;;;;;;18.95;14.77;;;;;;;;;;3586171;40;20044;-58
2021/07/24 01:36:17;;;;;;;20.30;14.07;;;;;;;;;;3585739;40;20044;-57
2021/07/24 01:38:43;;;;;;;19.88;14.48;;;;;;;;;;3585692;40;20025;-56
2021/07/24 01:41:11;;;;;;;19.20;15.13;;;;;;;;;;3585798;40;20137;-57
2021/07/24 01:43:37;;;;;;;18.08;15.63;;;;;;;;;;3585841;40;20399;-57
2021/07/24 01:46:03;;;;;;;19.02;14.85;;;;;;;;;;3585975;40;20044;-58
2021/07/24 01:48:42;;;;;;;16.33;14.15;;;;;;;;;;3585466;40;20044;-56
2021/07/24 01:53:55;;;;;;;16.95;14.70;;;;;;;;;;3585190;40;20153;-58
2021/07/24 01:56:24;;;;;;;16.10;13.85;;;;;;;;;;3585831;40;20187;-57
2021/07/24 01:58:49;;;;;;;18.15;15.10;;;;;;;;;;3586121;40;20306;-57
2021/07/24 02:01:15;;;;;;;23.27;14.95;;;;;;;;;;3586291;40;20043;-57
2021/07/24 02:03:42;;;;;;;16.52;14.15;;;;;;;;;;3585001;40;20052;-57
2021/07/24 02:06:16;;;;;;;19.50;15.13;;;;;;;;;;3585368;40;20138;-57
2021/07/24 02:08:49;;;;;;;14.93;13.38;;;;;;;;;;3584818;40;20051;-58
2021/07/24 02:11:17;;;;;;;18.42;14.90;;;;;;;;;;3585506;40;20040;-58
2021/07/24 02:13:42;;;;;;;16.33;14.63;;;;;;;;;;3582268;40;20048;-58
2021/07/24 02:16:08;;;;;;;16.95;15.35;;;;;;;;;;3585388;40;20553;-59
2021/07/24 02:18:34;;;;;;;19.17;14.75;;;;;;;;;;3585398;40;20028;-59
2021/07/24 02:21:01;;;;;;;18.02;16.15;;;;;;;;;;3586308;40;20033;-59
2021/07/24 02:23:26;;;;;;;18.05;16.15;;;;;;;;;;3585959;40;20035;-59
2021/07/24 02:25:52;;;;;;;19.63;15.50;;;;;;;;;;3585090;40;20272;-59
2021/07/24 02:28:17;;;;;;;15.77;13.90;;;;;;;;;;3585660;40;20032;-59
2021/07/24 02:30:43;;;;;;;15.93;14.20;;;;;;;;;;3585451;40;20126;-59
2021/07/24 02:33:09;;;;;;;16.70;14.05;;;;;;;;;;3585489;40;20130;-59
2021/07/24 02:35:34;;;;;;;17.42;14.35;;;;;;;;;;3585671;40;20382;-59
2021/07/24 02:38:00;;;;;;;16.10;14.40;;;;;;;;;;3586393;40;20029;-59
2021/07/24 02:40:26;;;;;;;17.30;14.57;;;;;;;;;;3585060;40;20041;-59
2021/07/24 02:42:51;;;;;;;19.27;14.80;;;;;;;;;;3585604;40;20132;-59
2021/07/24 02:45:17;;;;;;;19.27;14.48;;;;;;;;;;3584792;40;20540;-59
2021/07/24 02:47:42;;;;;;;19.77;15.95;;;;;;;;;;3585299;40;20045;-59
2021/07/24 02:50:08;;;;;;;22.73;15.95;;;;;;;;;;3583902;40;20840;-59
2021/07/24 02:52:33;;;;;;;17.27;14.77;;;;;;;;;;3585733;40;20041;-59
2021/07/24 02:54:59;;;;;;;17.83;14.77;;;;;;;;;;3586369;40;20377;-59
2021/07/24 02:57:24;;;;;;;18.88;14.80;;;;;;;;;;3585334;40;20044;-59
2021/07/24 02:59:50;;;;;;;16.08;14.38;;;;;;;;;;3585206;40;20048;-59
2021/07/24 03:02:16;;;;;;;16.10;14.57;;;;;;;;;;3586446;40;20158;-59
2021/07/24 03:04:42;;;;;;;17.15;14.40;;;;;;;;;;3583076;40;20073;-59
2021/07/24 03:07:08;;;;;;;16.55;14.63;;;;;;;;;;3584564;40;20040;-59
2021/07/24 03:09:33;;;;;;;19.30;14.88;;;;;;;;;;3585749;40;20117;-59
2021/07/24 03:11:59;;;;;;;18.27;14.75;;;;;;;;;;3586819;40;20036;-59
2021/07/24 03:14:24;;;;;;;16.88;14.13;;;;;;;;;;3587398;40;20037;-59
2021/07/24 03:16:49;;;;;;;15.73;14.23;;;;;;;;;;3586765;40;20033;-59
2021/07/24 03:19:15;;;;;;;20.38;14.85;;;;;;;;;;3586500;40;20040;-59
2021/07/24 03:21:40;;;;;;;20.65;14.18;;;;;;;;;;3586618;40;20453;-59
2021/07/24 03:24:05;;;;;;;16.73;15.10;;;;;;;;;;3585334;40;20666;-59
2021/07/24 03:26:31;;;;;;;16.77;14.85;;;;;;;;;;3585198;40;20044;-59
2021/07/24 03:28:56;;;;;;;17.17;15.43;;;;;;;;;;3586993;40;20488;-59
2021/07/24 03:31:22;;;;;;;16.13;14.45;;;;;;;;;;3585913;40;20044;-59
2021/07/24 03:33:47;;;;;;;16.67;14.98;;;;;;;;;;3586381;40;20028;-59
2021/07/24 03:36:13;;;;;;;17.70;15.40;;;;;;;;;;3582936;40;20036;-59
2021/07/24 03:38:38;;;;;;;18.00;14.63;;;;;;;;;;3586351;40;20036;-59
2021/07/24 03:41:04;;;;;;;22.55;15.75;;;;;;;;;;3586296;40;20272;-59
2021/07/24 03:43:31;;;;;;;15.57;13.82;;;;;;;;;;3586340;40;20029;-59
2021/07/24 03:45:56;;;;;;;18.77;14.38;;;;;;;;;;3584704;40;20090;-59
2021/07/24 03:48:21;;;;;;;17.52;14.95;;;;;;;;;;3586708;40;20041;-59
2021/07/24 03:50:47;;;;;;;16.75;13.73;;;;;;;;;;3585833;40;20133;-59
2021/07/24 03:53:12;;;;;;;18.25;15.45;;;;;;;;;;3586712;40;20033;-59
2021/07/24 03:55:38;;;;;;;17.17;12.80;;;;;;;;;;3585984;40;20673;-59
2021/07/24 03:58:03;;;;;;;14.98;13.40;;;;;;;;;;3585188;40;20039;-59
2021/07/24 04:00:40;;;;;;;15.40;12.95;;;;;;;;;;3585642;40;20032;-59
2021/07/24 04:03:06;;;;;;;30.48;14.50;;;;;;;;;;3586725;40;20037;-59
2021/07/24 04:05:38;;;;;;;17.83;13.70;;;;;;;;;;3586605;40;20393;-59
2021/07/24 04:08:05;;;;;;;18.42;13.20;;;;;;;;;;3586251;40;20048;-59
2021/07/24 04:10:32;;;;;;;17.63;13.38;;;;;;;;;;3586514;40;20100;-59
2021/07/24 04:12:58;;;;;;;14.23;12.80;;;;;;;;;;3585779;40;20088;-59
2021/07/24 04:15:23;;;;;;;16.83;12.65;;;;;;;;;;3584005;40;20301;-59
2021/07/24 04:17:49;;;;;;;17.33;13.10;;;;;;;;;;3586075;40;20355;-59
2021/07/24 04:20:15;;;;;;;16.05;12.35;;;;;;;;;;3586788;40;20044;-59
2021/07/24 04:22:41;;;;;;;15.00;13.13;;;;;;;;;;3585733;40;20133;-58
2021/07/24 04:25:07;;;;;;;14.18;12.55;;;;;;;;;;3594436;40;20052;-59
2021/07/24 04:27:32;;;;;;;14.30;12.45;;;;;;;;;;3586636;40;20037;-58
2021/07/24 04:29:58;;;;;;;17.88;13.68;;;;;;;;;;3585300;40;20059;-59
2021/07/24 04:32:24;;;;;;;16.55;13.98;;;;;;;;;;3585828;40;20036;-59
2021/07/24 04:34:50;;;;;;;17.70;13.35;;;;;;;;;;3585946;40;20086;-59
2021/07/24 04:37:15;;;;;;;20.05;14.20;;;;;;;;;;3585693;40;20040;-59
2021/07/24 04:39:40;;;;;;;14.15;12.38;;;;;;;;;;3585836;40;20052;-59
2021/07/24 04:42:06;;;;;;;19.50;13.55;;;;;;;;;;3585870;40;20066;-59
2021/07/24 04:44:31;;;;;;;15.25;12.88;;;;;;;;;;3585680;40;20051;-58
2021/07/24 04:46:57;;;;;;;14.70;12.95;;;;;;;;;;3585836;40;20049;-59
2021/07/24 04:49:22;;;;;;;14.40;12.85;;;;;;;;;;3584998;40;20287;-59
2021/07/24 04:51:48;;;;;;;15.48;13.10;;;;;;;;;;3585133;40;20056;-59
2021/07/24 04:54:14;;;;;;;14.52;11.98;;;;;;;;;;3586740;40;20129;-59
2021/07/24 04:56:39;;;;;;;16.10;14.25;;;;;;;;;;3585947;40;20330;-59
2021/07/24 04:59:05;;;;;;;18.80;13.85;;;;;;;;;;3585821;40;20075;-59
2021/07/24 05:01:31;;;;;;;14.18;12.68;;;;;;;;;;3586307;40;20040;-59
2021/07/24 05:03:57;;;;;;;16.48;13.32;;;;;;;;;;3586627;40;20036;-59
2021/07/24 05:06:23;;;;;;;14.63;13.00;;;;;;;;;;3585481;40;20076;-59
2021/07/24 05:08:49;;;;;;;15.15;13.52;;;;;;;;;;3586513;40;20072;-59
2021/07/24 05:11:14;;;;;;;15.38;12.38;;;;;;;;;;3586015;40;20385;-59
2021/07/24 05:13:39;;;;;;;14.27;12.38;;;;;;;;;;3585873;40;20033;-59
2021/07/24 05:16:05;;;;;;;15.07;12.30;;;;;;;;;;3585271;40;20032;-59
2021/07/24 05:18:30;;;;;;;14.38;12.93;;;;;;;;;;3584270;40;20036;-59
2021/07/24 05:20:55;;;;;;;14.80;12.48;;;;;;;;;;3585463;40;20122;-59
2021/07/24 05:23:21;;;;;;;15.30;13.13;;;;;;;;;;3585925;40;20118;-59
2021/07/24 05:25:46;;;;;;;13.48;12.05;;;;;;;;;;3584301;40;20040;-58
2021/07/24 05:28:12;;;;;;;13.63;11.82;;;;;;;;;;3585347;40;20376;-59
2021/07/24 05:30:37;;;;;;;15.20;13.35;;;;;;;;;;3585321;40;20051;-59
2021/07/24 05:33:02;;;;;;;14.35;12.85;;;;;;;;;;3584969;40;20044;-58
2021/07/24 05:35:28;;;;;;;14.75;13.35;;;;;;;;;;3586440;40;20036;-57
2021/07/24 05:37:53;;;;;;;15.85;13.07;;;;;;;;;;3584760;40;20384;-58
2021/07/24 05:40:18;;;;;;;13.73;12.05;;;;;;;;;;3584892;40;20032;-58
2021/07/24 05:42:44;;;;;;;17.17;13.07;;;;;;;;;;3584339;40;20051;-58
2021/07/24 05:45:10;;;;;;;18.08;12.50;;;;;;;;;;3585996;40;20296;-58
2021/07/24 05:47:35;;;;;;;13.68;11.95;;;;;;;;;;3584748;40;20036;-59
2021/07/24 05:50:02;;;;;;;14.32;12.82;;;;;;;;;;3585329;40;20057;-58
2021/07/24 05:52:28;;;;;;;15.05;12.45;;;;;;;;;;3585886;40;20342;-59
2021/07/24 05:54:53;;;;;;;14.23;12.68;;;;;;;;;;3585120;40;20051;-59
2021/07/24 05:57:19;;;;;;;15.68;12.95;;;;;;;;;;3585692;40;20056;-57
2021/07/24 05:59:44;;;;;;;12.90;11.57;;;;;;;;;;3584836;40;20041;-57
2021/07/24 06:02:14;;;;;;;17.27;12.55;;;;;;;;;;3584702;40;20041;-57
2021/07/24 06:04:39;;;;;;;16.92;13.02;;;;;;;;;;3587891;40;20048;-56
2021/07/24 06:07:05;;;;;;;18.58;12.80;;;;;;;;;;3585367;40;20042;-56
2021/07/24 06:09:31;;;;;;;14.85;12.18;;;;;;;;;;3586112;40;20037;-56
2021/07/24 06:11:57;;;;;;;17.70;13.50;;;;;;;;;;3585074;40;20089;-56
2021/07/24 06:14:25;;;;;;;14.88;13.30;;;;;;;;;;3583271;40;20047;-56
2021/07/24 06:16:51;;;;;;;14.23;12.27;;;;;;;;;;3585366;40;20292;-57
2021/07/24 06:19:17;;;;;;;19.08;12.45;;;;;;;;;;3585484;40;20384;-57
2021/07/24 06:21:44;;;;;;;14.35;12.60;;;;;;;;;;3584322;40;20045;-57
2021/07/24 06:24:09;;;;;;;17.45;12.60;;;;;;;;;;3585483;40;20044;-57
2021/07/24 06:26:38;;;;;;;13.23;11.85;;;;;;;;;;3584461;40;20032;-57
2021/07/24 06:29:05;;;;;;;13.70;12.30;;;;;;;;;;3585695;40;20027;-57
2021/07/24 06:31:30;;;;;;;16.02;12.45;;;;;;;;;;3583994;40;20039;-57
2021/07/24 06:33:55;;;;;;;14.50;12.98;;;;;;;;;;3584459;40;20029;-57
2021/07/24 06:36:21;;;;;;;14.95;13.00;;;;;;;;;;3585376;40;20585;-59
2021/07/24 06:38:46;;;;;;;13.85;12.45;;;;;;;;;;3586421;40;20052;-60
2021/07/24 06:41:12;;;;;;;17.23;11.82;;;;;;;;;;3584833;40;20047;-60
2021/07/24 06:43:37;;;;;;;13.85;12.32;;;;;;;;;;3586846;40;20090;-59
2021/07/24 06:46:13;;;;;;;15.93;13.05;;;;;;;;;;3587936;40;20039;-59
2021/07/24 06:48:39;;;;;;;20.55;13.80;;;;;;;;;;3587586;40;20051;-59
2021/07/24 06:51:05;;;;;;;31.48;19.50;;;;;;;;;;3587293;40;20080;-61
2021/07/24 06:53:31;;;;;;;30.05;26.92;;;;;;;;;;3587120;40;20040;-59
2021/07/24 06:55:56;;;;;;;30.77;27.00;;;;;;;;;;3587111;40;20108;-60
2021/07/24 06:58:22;;;;;;;40.90;27.92;;;;;;;;;;3586606;40;20044;-61
2021/07/24 07:00:47;;;;;;;15.27;13.00;;;;;;;;;;3587363;40;20036;-60
2021/07/24 07:03:13;;;;;;;15.95;13.57;;;;;;;;;;3587622;40;20037;-60
2021/07/24 07:05:38;;;;;;;16.10;12.90;;;;;;;;;;3586282;40;20097;-60
2021/07/24 07:08:03;;;;;;;17.58;12.73;;;;;;;;;;3585553;40;20094;-60
2021/07/24 07:10:29;;;;;;;19.63;14.60;;;;;;;;;;3587026;40;20080;-60
2021/07/24 07:12:54;;;;;;;23.73;13.85;;;;;;;;;;3587494;40;20036;-60
2021/07/24 07:15:20;;;;;;;18.92;13.98;;;;;;;;;;3587749;40;20031;-60
2021/07/24 07:17:45;;;;;;;17.27;12.90;;;;;;;;;;3587306;40;20134;-61
2021/07/24 07:20:11;;;;;;;14.80;12.73;;;;;;;;;;3587804;40;20036;-61
2021/07/24 07:22:36;;;;;;;16.58;13.48;;;;;;;;;;3586369;40;20133;-61
2021/07/24 07:25:02;;;;;;;14.45;12.85;;;;;;;;;;3587005;40;20056;-61
2021/07/24 07:27:28;;;;;;;16.88;13.30;;;;;;;;;;3585713;40;20037;-61
2021/07/24 07:29:53;;;;;;;14.63;13.18;;;;;;;;;;3587288;40;20024;-60
2021/07/24 07:32:18;;;;;;;16.95;13.57;;;;;;;;;;3584352;40;20037;-60
2021/07/24 07:34:44;;;;;;;15.00;13.40;;;;;;;;;;3585288;40;20390;-61
2021/07/24 07:37:10;;;;;;;15.18;13.57;;;;;;;;;;3584441;40;20060;-60
2021/07/24 07:39:35;;;;;;;17.55;13.45;;;;;;;;;;3585679;40;20381;-61
2021/07/24 07:42:01;;;;;;;17.13;13.90;;;;;;;;;;3586820;40;20077;-60
2021/07/24 07:44:28;;;;;;;19.88;14.55;;;;;;;;;;3584619;40;20040;-60
2021/07/24 07:46:54;;;;;;;18.13;14.85;;;;;;;;;;3586356;40;20451;-60
2021/07/24 07:49:19;;;;;;;16.90;14.95;;;;;;;;;;3586138;40;20044;-61
2021/07/24 07:51:44;;;;;;;18.33;16.33;;;;;;;;;;3586509;40;20047;-62
2021/07/24 07:54:10;;;;;;;20.33;15.98;;;;;;;;;;3585171;40;20080;-60
2021/07/24 07:56:36;;;;;;;17.45;15.70;;;;;;;;;;3586214;40;20064;-61
2021/07/24 07:59:01;;;;;;;19.58;17.40;;;;;;;;;;3585348;40;20036;-61
2021/07/24 08:01:26;;;;;;;22.30;17.40;;;;;;;;;;3586025;40;20032;-61
2021/07/24 08:03:52;;;;;;;19.27;17.10;;;;;;;;;;3584680;40;20449;-61
2021/07/24 08:06:17;;;;;;;18.83;17.00;;;;;;;;;;3585134;40;20039;-61
2021/07/24 08:08:43;;;;;;;18.25;16.58;;;;;;;;;;3584149;40;20118;-61
2021/07/24 08:11:08;;;;;;;20.70;18.45;;;;;;;;;;3582341;40;20048;-60
2021/07/24 08:13:34;;;;;;;19.00;17.25;;;;;;;;;;3585953;40;20055;-61
2021/07/24 08:15:59;;;;;;;25.00;18.75;;;;;;;;;;3586393;40;20028;-61
2021/07/24 08:18:24;;;;;;;22.67;19.00;;;;;;;;;;3586536;40;20048;-61
2021/07/24 08:20:50;;;;;;;20.70;17.25;;;;;;;;;;3585939;40;20122;-61
2021/07/24 08:23:15;;;;;;;25.15;18.52;;;;;;;;;;3585194;40;20047;-61
2021/07/24 08:25:42;;;;;;;20.60;18.60;;;;;;;;;;3584941;40;20032;-60
2021/07/24 08:28:09;;;;;;;21.10;17.90;;;;;;;;;;3585696;40;20087;-61
2021/07/24 08:30:35;;;;;;;21.95;17.35;;;;;;;;;;3584455;40;20090;-61
2021/07/24 08:33:00;;;;;;;21.45;18.50;;;;;;;;;;3586493;40;20033;-60
2021/07/24 08:35:26;;;;;;;20.83;18.73;;;;;;;;;;3584476;40;20024;-61
2021/07/24 08:37:52;;;;;;;17.95;16.27;;;;;;;;;;3586984;40;20036;-61
2021/07/24 08:40:17;;;;;;;20.92;18.50;;;;;;;;;;3584084;40;20076;-60
2021/07/24 08:42:43;;;;;;;22.08;18.00;;;;;;;;;;3583059;40;20047;-61
2021/07/24 08:45:10;;;;;;;18.10;16.33;;;;;;;;;;3584718;40;20033;-61
2021/07/24 08:47:36;;;;;;;19.73;16.65;;;;;;;;;;3585400;40;20025;-61
2021/07/24 08:50:04;;;;;;;26.73;17.60;;;;;;;;;;3585319;40;20051;-61
2021/07/24 08:52:31;;;;;;;21.30;17.83;;;;;;;;;;3582644;40;20130;-61
2021/07/24 08:54:57;;;;;;;17.92;16.13;;;;;;;;;;3585625;40;20032;-62
2021/07/24 08:57:26;;;;;;;18.95;17.05;;;;;;;;;;3586464;40;20020;-61
2021/07/24 08:59:54;;;;;;;18.73;16.05;;;;;;;;;;3584692;40;20108;-61
2021/07/24 09:02:28;;;;;;;16.27;13.70;;;;;;;;;;3586235;40;20448;-61
2021/07/24 09:05:03;;;;;;;18.92;17.10;;;;;;;;;;3585019;40;20025;-61
2021/07/24 09:07:31;;;;;;;20.73;17.02;;;;;;;;;;3586075;40;20451;-61
2021/07/24 09:09:59;;;;;;;26.23;17.70;;;;;;;;;;3585133;40;20133;-61
2021/07/24 09:12:26;;;;;;;17.70;15.90;;;;;;;;;;3586547;40;20025;-61
2021/07/24 09:14:52;;;;;;;19.13;17.10;;;;;;;;;;3585449;40;20056;-60
2021/07/24 09:17:19;;;;;;;19.63;17.88;;;;;;;;;;3584541;40;20035;-60
2021/07/24 09:19:45;;;;;;;18.95;17.15;;;;;;;;;;3584047;40;20044;-60
2021/07/24 09:22:34;;;;;;;23.30;16.70;;;;;;;;;;3587070;40;20035;-61
2021/07/24 09:25:02;;;;;;;17.52;14.65;;;;;;;;;;3586069;40;20069;-60
2021/07/24 09:27:28;;;;;;;17.02;15.25;;;;;;;;;;3584573;40;20032;-61
2021/07/24 09:29:53;;;;;;;15.27;13.73;;;;;;;;;;3585411;40;20044;-61
2021/07/24 09:32:19;;;;;;;17.05;15.35;;;;;;;;;;3585950;40;20044;-60
2021/07/24 09:34:46;;;;;;;15.85;14.23;;;;;;;;;;3585405;40;20460;-60
2021/07/24 09:37:25;;;;;;;15.90;14.45;;;;;;;;;;3586831;40;20061;-60
2021/07/24 09:39:51;;;;;;;16.80;15.20;;;;;;;;;;3585010;40;20391;-60
2021/07/24 09:42:18;;;;;;;18.33;16.33;;;;;;;;;;3584746;40;20378;-60
2021/07/24 09:44:43;;;;;;;18.13;15.60;;;;;;;;;;3585849;40;20033;-60
2021/07/24 09:47:09;;;;;;;20.40;15.93;;;;;;;;;;3585111;40;20064;-60
2021/07/24 09:49:36;;;;;;;16.65;15.15;;;;;;;;;;3584104;40;20085;-60
2021/07/24 09:52:09;;;;;;;15.82;14.23;;;;;;;;;;3584874;40;20044;-60
2021/07/24 09:54:35;;;;;;;16.55;14.85;;;;;;;;;;3585532;40;20741;-60
2021/07/24 09:57:01;;;;;;;18.92;15.13;;;;;;;;;;3576246;40;20060;-60
2021/07/24 09:59:32;;;;;;;13.75;12.43;;;;;;;;;;3585488;40;20033;-59
2021/07/24 10:01:58;;;;;;;;;;;;;;;;;;3586965;40;20040;-60
2021/07/24 10:04:29;;;;;;;18.60;15.27;;;;;;;;;;3585789;40;19940;-61
2021/07/24 10:06:58;;;;;;;18.58;15.20;;;;;;;;;;3585688;40;20505;-61
2021/07/24 10:09:27;;;;;;;20.15;14.55;;;;;;;;;;3586218;40;20040;-60
2021/07/24 10:11:54;;;;;;;16.97;14.67;;;;;;;;;;3585938;40;20036;-61
2021/07/24 10:14:21;;;;;;;16.80;14.10;;;;;;;;;;3586117;40;20621;-62
2021/07/24 10:16:47;;;;;;;16.58;13.23;;;;;;;;;;3585651;40;20137;-61
2021/07/24 10:19:14;;;;;;;19.55;13.25;;;;;;;;;;3586574;40;20036;-62
2021/07/24 10:21:39;;;;;;;18.35;13.93;;;;;;;;;;3586377;40;20051;-61
2021/07/24 10:24:05;;;;;;;17.42;15.85;;;;;;;;;;3586372;40;20036;-61
2021/07/24 10:26:33;;;;;;;14.13;12.57;;;;;;;;;;3585872;40;20362;-60
2021/07/24 10:28:58;;;;;;;17.58;12.75;;;;;;;;;;3586516;40;20050;-60
2021/07/24 10:31:33;;;;;;;13.88;11.90;;;;;;;;;;3586054;40;20474;-60
2021/07/24 10:34:02;;;;;;;14.30;12.45;;;;;;;;;;3592408;39;20160;-61
2021/07/24 10:36:41;;;;;;;13.77;11.88;;;;;;;;;;3585267;40;20040;-61
2021/07/24 10:39:16;;;;;;;13.52;11.70;;;;;;;;;;3591369;40;20035;-62
2021/07/24 10:41:46;;;;;;;17.73;13.40;;;;;;;;;;3585887;40;20029;-62
2021/07/24 10:44:42;;;;;;;17.77;12.70;;;;;;;;;;3585458;40;20029;-62
2021/07/24 10:47:11;;;;;;;12.48;11.18;;;;;;;;;;3583066;40;20448;-62
2021/07/24 10:49:36;;;;;;;12.02;10.38;;;;;;;;;;3585706;40;20081;-62
2021/07/24 10:52:05;;;;;;;20.17;11.75;;;;;;;;;;3584876;40;20037;-62
2021/07/24 10:54:51;;;;;;;13.60;11.60;;;;;;;;;;3583902;40;20044;-62
2021/07/24 10:57:45;;;;;;;12.65;10.40;;;;;;;;;;3583777;40;20396;-61
2021/07/24 11:00:16;;;;;;;14.43;9.82;;;;;;;;;;3585205;40;20033;-62
2021/07/24 11:02:50;;;;;;;20.92;10.52;;;;;;;;;;3586436;40;20364;-61
2021/07/24 11:05:29;;;;;;;13.35;10.20;;;;;;;;;;3584863;40;20119;-61
2021/07/24 11:07:56;;;;;;;12.23;9.90;;;;;;;;;;3584607;40;20036;-61
2021/07/24 11:10:21;;;;;;;14.65;10.48;;;;;;;;;;3584113;40;20065;-61
2021/07/24 11:12:48;;;;;;;11.77;10.32;;;;;;;;;;3584513;40;20550;-62
2021/07/24 11:15:19;;;;;;;13.77;10.75;;;;;;;;;;3585035;40;20051;-63
2021/07/24 11:17:45;;;;;;;14.40;10.57;;;;;;;;;;3585547;40;20281;-63
2021/07/24 11:20:10;;;;;;;12.45;11.23;;;;;;;;;;3585150;40;20037;-62
2021/07/24 11:22:59;;;;;;;17.58;10.23;;;;;;;;;;3585282;40;20126;-63
2021/07/24 11:25:24;;;;;;;10.63;9.30;;;;;;;;;;3583264;40;20033;-63
2021/07/24 11:27:52;;;;;;;16.92;9.23;;;;;;;;;;3583819;40;20039;-63
2021/07/24 11:30:25;;;;;;;12.60;9.93;;;;;;;;;;3585159;40;20039;-62
2021/07/24 11:32:54;;;;;;;12.52;8.88;;;;;;;;;;3585597;40;20040;-63
2021/07/24 11:35:20;;;;;;;10.67;8.57;;;;;;;;;;3585399;40;20229;-62
2021/07/24 11:37:49;;;;;;;9.90;8.85;;;;;;;;;;3586293;40;20314;-62
2021/07/24 11:40:16;;;;;;;13.57;8.88;;;;;;;;;;3585998;40;20032;-61
2021/07/24 11:42:42;;;;;;;15.70;8.18;;;;;;;;;;3586369;40;20033;-61
2021/07/24 11:45:08;;;;;;;10.25;8.00;;;;;;;;;;3587010;40;20044;-63
2021/07/24 11:47:34;;;;;;;11.10;8.63;;;;;;;;;;3585130;40;20385;-63
2021/07/24 11:50:18;;;;;;;11.48;9.15;;;;;;;;;;3587114;40;20052;-63
2021/07/24 11:52:48;;;;;;;10.25;9.10;;;;;;;;;;3587550;40;20036;-62
2021/07/24 11:55:24;;;;;;;;;;;;;;;;;;3587531;40;20047;-62
2021/07/24 11:57:57;;;;;;;11.18;8.68;;;;;;;;;;3586075;40;19925;-62
2021/07/24 12:00:29;;;;;;;9.35;8.30;;;;;;;;;;3586644;40;20033;-62
2021/07/24 12:03:21;;;;;;;10.80;8.60;;;;;;;;;;3586719;40;20029;-61
2021/07/24 12:05:57;;;;;;;11.43;9.45;;;;;;;;;;3587005;40;20606;-62
2021/07/24 12:08:26;;;;;;;13.35;9.27;;;;;;;;;;3586876;40;20047;-61
2021/07/24 12:10:52;;;;;;;15.15;9.18;;;;;;;;;;3586586;40;20113;-61
2021/07/24 12:13:23;;;;;;;11.57;8.77;;;;;;;;;;3587152;40;20607;-61
2021/07/24 12:16:03;;;;;;;11.88;8.55;;;;;;;;;;3587313;40;20036;-63
2021/07/24 12:18:34;;;;;;;11.23;9.48;;;;;;;;;;3586953;40;20368;-62
2021/07/24 12:21:14;;;;;;;14.30;9.20;;;;;;;;;;3586904;40;20403;-63
2021/07/24 12:23:44;;;;;;;12.95;10.25;;;;;;;;;;3583172;40;20081;-62
2021/07/24 12:26:09;;;;;;;14.38;8.98;;;;;;;;;;3586431;40;20040;-61
2021/07/24 12:28:35;;;;;;;12.40;9.18;;;;;;;;;;3586805;40;20051;-60
2021/07/24 12:31:21;;;;;;;15.15;9.75;;;;;;;;;;3585858;40;20037;-60
2021/07/24 12:33:48;;;;;;;12.98;9.25;;;;;;;;;;3586139;40;20283;-64
2021/07/24 12:36:15;;;;;;;12.38;9.57;;;;;;;;;;3586646;40;20041;-62
2021/07/24 12:38:40;;;;;;;9.77;8.48;;;;;;;;;;3585253;40;20191;-63
2021/07/24 12:41:06;;;;;;;19.95;9.07;;;;;;;;;;3585389;40;20437;-63
2021/07/24 12:43:32;;;;;;;11.48;9.30;;;;;;;;;;3586222;40;20048;-62
2021/07/24 12:46:17;;;;;;;11.50;9.85;;;;;;;;;;3586312;40;20080;-60
2021/07/24 12:48:46;;;;;;;17.35;12.23;;;;;;;;;;3586408;40;20075;-61
2021/07/24 12:51:17;;;;;;;14.17;12.60;;;;;;;;;;3586648;40;20076;-60
2021/07/24 12:53:46;;;;;;;16.42;13.75;;;;;;;;;;3586243;40;20277;-60
2021/07/24 12:56:11;;;;;;;19.13;14.90;;;;;;;;;;3586349;40;20048;-60
2021/07/24 12:58:37;;;;;;;20.42;14.70;;;;;;;;;;3585413;40;20162;-60
2021/07/24 13:01:10;;;;;;;14.18;12.77;;;;;;;;;;3583806;40;20052;-61
2021/07/24 13:03:35;;;;;;;14.65;12.77;;;;;;;;;;3585908;40;20048;-62
2021/07/24 13:06:01;;;;;;;16.00;13.20;;;;;;;;;;3584646;40;20625;-62
2021/07/24 13:08:28;;;;;;;13.65;12.27;;;;;;;;;;3584492;40;20046;-61
2021/07/24 13:10:53;;;;;;;14.23;12.82;;;;;;;;;;3582976;40;20404;-61
2021/07/24 13:13:19;;;;;;;12.90;11.40;;;;;;;;;;3583205;40;20045;-63
2021/07/24 13:15:44;;;;;;;10.38;9.32;;;;;;;;;;3585265;40;20044;-62
2021/07/24 13:18:09;;;;;;;12.52;9.90;;;;;;;;;;3586206;40;20028;-62
2021/07/24 13:20:35;;;;;;;10.73;9.70;;;;;;;;;;3584885;40;20451;-62
2021/07/24 13:23:00;;;;;;;9.98;8.68;;;;;;;;;;3584497;40;20364;-62
2021/07/24 13:25:43;;;;;;;9.98;9.07;;;;;;;;;;3583784;40;20033;-61
2021/07/24 13:28:15;;;;;;;9.35;8.20;;;;;;;;;;3585082;40;20045;-61
2021/07/24 13:30:51;;;;;;;10.57;7.90;;;;;;;;;;3586926;40;20060;-62
2021/07/24 13:33:18;;;;;;;9.35;8.05;;;;;;;;;;3584623;40;20141;-61
2021/07/24 13:35:45;;;;;;;10.02;9.02;;;;;;;;;;3584312;40;20434;-62
2021/07/24 13:38:11;;;;;;;9.50;8.60;;;;;;;;;;3587300;40;20043;-62
2021/07/24 13:40:36;;;;;;;10.10;8.68;;;;;;;;;;3585851;40;20029;-62
2021/07/24 13:43:02;;;;;;;12.32;8.60;;;;;;;;;;3585997;40;20048;-62
2021/07/24 13:45:28;;;;;;;8.82;8.02;;;;;;;;;;3586663;40;20366;-62
2021/07/24 13:47:56;;;;;;;12.50;8.77;;;;;;;;;;3586563;40;20040;-62
2021/07/24 13:50:22;;;;;;;8.93;8.02;;;;;;;;;;3585245;40;20364;-62
2021/07/24 13:52:47;;;;;;;9.77;7.60;;;;;;;;;;3586068;40;20090;-62
2021/07/24 13:55:13;;;;;;;9.23;8.35;;;;;;;;;;3586254;40;20387;-61
2021/07/24 13:57:38;;;;;;;7.72;6.93;;;;;;;;;;3585660;40;20138;-62
2021/07/24 14:00:06;;;;;;;9.85;8.82;;;;;;;;;;3584169;40;20063;-62
2021/07/24 14:02:33;;;;;;;8.80;8.00;;;;;;;;;;3586555;40;20036;-63
2021/07/24 14:04:58;;;;;;;9.55;8.27;;;;;;;;;;3585929;40;20048;-62
2021/07/24 14:07:23;;;;;;;9.70;7.88;;;;;;;;;;3585060;40;20080;-62
2021/07/24 14:09:49;;;;;;;11.45;10.45;;;;;;;;;;3586023;40;20037;-62
2021/07/24 14:12:14;;;;;;;10.20;9.20;;;;;;;;;;3584635;40;20056;-61
2021/07/24 14:14:39;;;;;;;9.90;7.32;;;;;;;;;;3583141;40;20025;-61
2021/07/24 14:17:05;;;;;;;12.73;8.23;;;;;;;;;;3586252;40;20546;-61
2021/07/24 14:19:30;;;;;;;10.90;9.90;;;;;;;;;;3586348;40;20036;-62
2021/07/24 14:21:56;;;;;;;9.48;8.05;;;;;;;;;;3586765;40;20032;-62
2021/07/24 14:24:21;;;;;;;14.40;8.05;;;;;;;;;;3585918;40;20044;-62